Latest Weather Observations for Longreach

IDQ60801

Issued at 4:32 pm EST Thursday 30 June 2016 (issued every 30 minutes, with the page automatically refreshed every 10 minutes)

About weather observations | Map of weather stations | Latest weather observations for QLD | Other Formats
Station Details ID: 036031 Name: LONGREACH AERO Lat: -23.44 Lon: 144.28 Height: 192.2 m
Data from the previous 72 hours. | See also: Recent months at Longreach
Date/Time
EST
Temp
°C
App
Temp
°C
Dew
Point
°C
Rel
Hum
%
Delta-T
°C
Wind Press
QNH
hPa
Press
MSL
hPa
Rain since
9am
mm
Dir  Spd
km/h
Gust
km/h
Spd
kts
Gust
kts
30/04:30pm 23.3 20.9 2.1 25 10.1 W 4 7 2 4 1018.6 1018.4 0.0
30/04:00pm 23.5 21.0 3.8 27 9.7 SW 6 9 3 5 1018.7 1018.5 0.0
30/03:30pm 23.8 21.0 3.0 25 10.1 WNW 7 17 4 9 1018.8 1018.6 0.0
30/03:00pm 23.4 20.2 2.9 26 9.9 WNW 9 19 5 10 1018.9 1018.7 0.0
30/02:30pm 23.1 19.8 4.3 29 9.3 WNW 11 17 6 9 1019.1 1018.9 0.0
30/02:00pm 22.8 19.4 4.1 29 9.2 NNW 11 20 6 11 1019.5 1019.3 0.0
30/01:30pm 22.7 18.5 5.8 33 8.6 NW 17 22 9 12 1019.8 1019.6 0.0
30/01:00pm 22.4 18.5 7.2 37 7.9 NNW 17 26 9 14 1020.3 1020.1 0.0
30/12:30pm 21.1 16.8 7.1 40 7.2 N 19 35 10 19 1021.0 1020.7 0.0
30/12:00pm 21.2 15.9 6.7 39 7.4 N 24 30 13 16 1021.5 1021.2 0.0
30/11:30am 20.2 15.5 7.6 44 6.5 NNE 22 32 12 17 1022.0 1021.7 0.0
30/11:00am 19.1 14.9 7.3 46 6.0 NNE 19 24 10 13 1022.3 1022.0 0.0
30/10:30am 17.3 14.4 6.6 49 5.3 NNE 11 17 6 9 1022.7 1022.4 0.0
30/10:00am 15.6 13.0 6.1 53 4.6 NE 9 15 5 8 1022.6 1022.3 0.0
30/09:30am 13.6 10.9 5.8 59 3.7 NE 9 13 5 7 1022.7 1022.4 0.0
30/09:00am 11.9 8.6 4.7 61 3.3 NE 11 15 6 8 1022.5 1022.2 0.0
30/08:30am 10.0 5.9 4.2 67 2.6 NE 15 19 8 10 1022.2 1021.9 0.0
30/08:00am 8.0 5.5 3.6 74 1.9 NNE 6 6 3 3 1022.3 1022.0 0.0
30/07:30am 5.6 2.7 2.7 81 1.2 NNE 7 9 4 5 1021.6 1021.3 0.0
30/07:00am 4.9 1.3 2.7 86 0.9 NNE 11 13 6 7 1021.3 1021.0 0.0
30/06:30am 5.1 1.8 2.7 84 1.0 NNE 9 11 5 6 1021.3 1021.0 0.0
30/06:00am 5.0 2.2 3.1 87 0.8 NNE 7 9 4 5 1021.4 1021.1 0.0
30/05:30am 5.1 1.8 2.7 84 1.0 NNE 9 9 5 5 1021.3 1021.0 0.0
30/05:00am 5.0 1.8 2.8 86 0.9 N 9 11 5 6 1021.3 1021.0 0.0
30/04:30am 5.9 2.7 3.0 82 1.2 NNE 9 11 5 6 1021.4 1021.1 0.0
30/04:00am 5.2 2.5 2.8 84 1.0 NNE 6 7 3 4 1021.5 1021.2 0.0
30/03:30am 7.1 4.2 2.8 74 1.8 ENE 7 9 4 5 1021.6 1021.3 0.0
30/03:00am 7.4 5.0 2.1 69 2.2 ESE 4 6 2 3 1021.7 1021.4 0.0
30/02:30am 6.6 5.2 3.3 79 1.4 CALM 0 0 0 0 1021.9 1021.6 0.0
30/02:00am 7.5 4.8 2.8 72 2.0 NE 6 6 3 3 1022.1 1021.8 0.0
30/01:30am 6.1 3.4 2.7 79 1.4 E 6 9 3 5 1022.5 1022.2 0.0
30/01:00am 8.3 5.4 2.4 66 2.5 ESE 7 11 4 6 1022.3 1022.0 0.0
30/12:30am 8.9 5.9 2.3 63 2.8 ESE 7 9 4 5 1022.3 1022.0 0.0
30/12:00am 9.8 7.3 1.7 57 3.4 E 4 6 2 3 1022.3 1022.0 0.0
 
Date/Time
EST
Temp
°C
App
Temp
°C
Dew
Point
°C
Rel
Hum
%
Delta-T
°C
Wind Press
QNH
hPa
Press
MSL
hPa
Rain since
9am
mm
Dir  Spd
km/h
Gust
km/h
Spd
kts
Gust
kts
29/11:30pm 9.7 5.2 2.2 59 3.2 E 15 17 8 9 1022.4 1022.1 0.0
29/11:00pm 10.8 6.9 1.3 52 4.0 ESE 11 17 6 9 1022.8 1022.6 0.0
29/10:30pm 11.4 6.8 1.5 50 4.2 ESE 15 17 8 9 1022.8 1022.6 0.0
29/10:00pm 11.4 7.2 1.8 51 4.1 ESE 13 15 7 8 1022.8 1022.6 0.0
29/09:30pm 12.1 8.3 1.6 48 4.5 ESE 11 15 6 8 1022.9 1022.7 0.0
29/09:00pm 12.3 8.1 1.6 48 4.6 ESE 13 13 7 7 1022.9 1022.7 0.0
29/08:30pm 12.7 8.9 1.5 46 4.8 ESE 11 15 6 8 1022.8 1022.6 0.0
29/08:00pm 13.3 9.5 1.5 44 5.1 ESE 11 11 6 6 1022.6 1022.3 0.0
29/07:30pm 13.9 10.0 1.2 42 5.5 ESE 11 13 6 7 1022.6 1022.3 0.0
29/07:00pm 14.5 11.0 1.4 41 5.7 ESE 9 15 5 8 1022.3 1022.0 0.0
29/06:30pm 14.9 11.5 2.1 42 5.7 ESE 9 11 5 6 1021.9 1021.6 0.0
29/06:00pm 16.3 12.8 1.4 36 6.6 SE 9 11 5 6 1021.7 1021.4 0.0
29/05:30pm 18.0 14.1 0.9 31 7.6 ESE 11 15 6 8 1021.6 1021.3 0.0
29/05:00pm 19.2 14.3 -0.8 26 8.7 ESE 15 19 8 10 1021.6 1021.3 0.0
29/04:30pm 19.5 15.0 -0.6 26 8.8 ESE 13 19 7 10 1021.7 1021.4 0.0
29/04:00pm 19.6 14.7 -0.4 26 8.8 ESE 15 22 8 12 1021.8 1021.5 0.0
29/03:30pm 19.7 15.1 -1.4 24 9.1 E 13 22 7 12 1021.9 1021.6 0.0
29/03:00pm 19.9 14.4 -1.8 23 9.3 ENE 17 22 9 12 1022.0 1021.7 0.0
29/02:30pm 19.6 14.6 -1.2 24 9.0 E 15 22 8 12 1022.1 1021.8 0.0
29/02:00pm 19.2 13.9 -0.5 26 8.6 E 17 24 9 13 1022.4 1022.1 0.0
29/01:30pm 18.6 13.3 -0.5 27 8.3 ENE 17 26 9 14 1023.0 1022.8 0.0
29/01:00pm 18.0 13.0 -0.9 27 8.1 ENE 15 22 8 12 1023.5 1023.3 0.0
29/12:30pm 17.5 11.8 -0.7 29 7.8 ENE 19 26 10 14 1024.3 1024.1 0.0
29/12:00pm 17.1 11.6 0.4 32 7.3 ENE 19 26 10 14 1024.9 1024.7 0.0
29/11:30am 16.1 10.9 0.4 34 6.8 ENE 17 22 9 12 1025.4 1025.2 0.0
29/11:00am 15.5 10.6 1.7 39 6.1 ENE 17 22 9 12 1026.1 1025.8 0.0
29/10:30am 14.3 10.0 3.2 47 5.0 ENE 15 20 8 11 1026.4 1026.1 0.0
29/10:00am 12.5 7.8 3.3 53 4.1 E 17 24 9 13 1026.5 1026.2 0.0
29/09:30am 11.6 7.3 3.2 56 3.7 ENE 15 19 8 10 1026.8 1026.5 0.0
29/09:00am 9.9 6.0 3.2 63 2.9 E 13 19 7 10 1026.8 1026.5 0.0
29/08:30am 8.6 4.6 3.0 68 2.4 ESE 13 19 7 10 1026.7 1026.4 0.0
29/08:00am 7.3 3.7 2.8 73 1.9 ESE 11 15 6 8 1026.3 1026.0 0.0
29/07:30am 6.2 3.0 2.8 79 1.4 ESE 9 13 5 7 1026.0 1025.7 0.0
29/07:00am 5.6 2.4 2.9 83 1.1 ESE 9 13 5 7 1025.7 1025.5 0.0
29/06:30am 6.2 1.8 2.8 79 1.4 ESE 15 17 8 9 1025.3 1025.1 0.0
29/06:00am 6.8 2.1 3.0 77 1.6 SE 17 20 9 11 1025.0 1024.8 0.0
29/05:30am 7.2 2.5 2.9 74 1.8 SE 17 20 9 11 1025.0 1024.8 0.0
29/05:00am 7.3 2.6 3.0 74 1.8 SE 17 20 9 11 1024.8 1024.6 0.0
29/04:30am 7.6 2.9 3.1 73 1.9 SE 17 20 9 11 1024.9 1024.7 0.0
29/04:00am 7.9 3.2 3.0 71 2.1 SE 17 20 9 11 1024.8 1024.6 0.0
29/03:30am 8.5 3.4 2.9 68 2.4 SE 19 26 10 14 1024.8 1024.6 0.0
29/03:00am 8.8 3.4 2.7 65 2.6 SE 20 26 11 14 1024.9 1024.7 0.0
29/02:30am 8.9 3.5 2.5 64 2.7 SE 20 26 11 14 1025.1 1024.9 0.0
29/02:00am 7.9 3.2 3.0 71 2.1 SE 17 20 9 11 1025.3 1025.1 0.0
29/01:30am 8.2 3.5 3.0 70 2.2 SE 17 20 9 11 1025.6 1025.4 0.0
29/01:00am 8.3 3.6 2.9 69 2.3 SE 17 22 9 12 1025.7 1025.5 0.0
29/12:30am 8.8 4.0 2.7 65 2.6 SE 17 22 9 12 1026.0 1025.7 0.0
29/12:00am 9.1 4.4 3.1 66 2.6 SE 17 20 9 11 1026.2 1025.9 0.0
 
Date/Time
EST
Temp
°C
App
Temp
°C
Dew
Point
°C
Rel
Hum
%
Delta-T
°C
Wind Press
QNH
hPa
Press
MSL
hPa
Rain since
9am
mm
Dir  Spd
km/h
Gust
km/h
Spd
kts
Gust
kts
28/11:30pm 9.9 4.7 2.7 61 3.1 SE 19 22 10 12 1026.2 1025.9 0.0
28/11:00pm 10.7 5.8 2.3 56 3.6 SE 17 24 9 13 1026.3 1026.0 0.0
28/10:30pm 10.2 5.4 2.5 59 3.3 SSE 17 20 9 11 1026.4 1026.1 0.0
28/10:00pm 10.4 5.9 2.2 57 3.5 SSE 15 19 8 10 1026.5 1026.2 0.0
28/09:30pm 11.1 6.6 2.3 54 3.8 SSE 15 19 8 10 1026.5 1026.2 0.0
28/09:00pm 11.0 6.9 2.4 55 3.7 SSE 13 15 7 8 1026.5 1026.2 0.0
28/08:30pm 10.4 7.6 3.3 61 3.1 SSE 7 9 4 5 1026.6 1026.3 0.0
28/08:00pm 11.1 8.4 2.8 56 3.6 SE 6 6 3 3 1026.3 1026.0 0.0
28/07:30pm 12.6 9.2 1.7 47 4.7 SSE 9 13 5 7 1025.7 1025.5 0.0
28/07:00pm 12.4 8.7 2.6 51 4.3 SSE 11 13 6 7 1025.5 1025.3 0.0
28/06:30pm 13.4 10.1 2.2 46 4.9 SSE 9 13 5 7 1025.1 1024.9 0.0
28/06:00pm 14.3 10.5 1.7 42 5.5 SSE 11 15 6 8 1024.9 1024.7 0.0
28/05:30pm 15.8 11.4 0.6 35 6.6 SSE 13 17 7 9 1024.5 1024.3 0.0
28/05:00pm 16.6 11.4 0.2 33 7.1 SSE 17 22 9 12 1024.2 1024.0 0.0
28/04:30pm 16.7 11.5 0.0 32 7.2 SSE 17 22 9 12 1024.1 1023.9 0.0
28/04:00pm 17.0 11.9 0.5 32 7.2 SSE 17 22 9 12 1024.0 1023.8 0.0
28/03:30pm 17.0 11.9 0.6 33 7.2 SSE 17 22 9 12 1023.8 1023.6 0.0
28/03:00pm 16.9 11.4 0.7 33 7.1 SE 19 24 10 13 1023.7 1023.5 0.0
28/02:30pm 16.8 11.3 0.5 33 7.1 SSE 19 26 10 14 1023.9 1023.7 0.0
28/02:00pm 16.2 10.7 0.9 35 6.7 SE 19 24 10 13 1024.0 1023.8 0.0
28/01:30pm 16.0 10.4 1.2 36 6.5 SSE 20 26 11 14 1024.4 1024.2 0.0
28/01:00pm 15.2 9.6 0.9 38 6.2 SSE 20 28 11 15 1024.9 1024.7 0.0
28/12:30pm 14.8 8.8 1.2 39 5.9 SSE 22 30 12 16 1025.2 1025.0 0.0
28/12:00pm 13.6 7.5 0.7 41 5.5 SE 22 32 12 17 1025.6 1025.4 0.0
28/11:30am 13.8 7.5 1.3 42 5.4 SE 24 32 13 17 1026.2 1025.9 0.0
28/11:00am 12.6 6.2 1.1 45 4.9 SE 24 32 13 17 1026.5 1026.2 0.0
28/10:30am 11.9 4.8 1.3 48 4.5 SE 28 35 15 19 1026.7 1026.4 0.0
28/10:00am 11.1 4.0 1.4 51 4.1 SE 28 37 15 20 1026.6 1026.3 0.0
28/09:30am 10.3 3.3 1.8 55 3.6 SE 28 39 15 21 1026.8 1026.5 0.0
28/09:00am 9.5 4.3 3.3 65 2.7 SE 20 26 11 14 1026.9 1026.6 0.0
28/08:30am 7.9 4.0 3.2 72 2.0 SSE 13 19 7 10 1026.6 1026.3 0.0
28/08:00am 6.2 3.4 3.4 82 1.2 S 7 9 4 5 1026.2 1025.9 0.0
28/07:30am 5.1 2.5 3.2 87 0.8 S 6 6 3 3 1026.0 1025.7 0.0
28/07:00am 4.7 2.1 3.3 91 0.6 S 6 7 3 4 1025.6 1025.4 0.0
28/06:30am 4.8 2.2 3.4 91 0.6 S 6 7 3 4 1025.3 1025.1 0.0
28/06:00am 5.1 2.0 3.7 91 0.6 SSE 9 11 5 6 1025.0 1024.8 0.0
28/05:30am 5.4 2.7 3.7 89 0.7 SSE 7 9 4 5 1024.7 1024.5 0.0
28/05:00am 5.7 2.7 4.1 89 0.7 SSE 9 13 5 7 1024.5 1024.3 0.0
28/04:30am 5.9 2.9 4.0 88 0.8 S 9 15 5 8 1024.5 1024.3 0.0
28/04:00am 6.2 3.2 4.1 86 0.9 S 9 13 5 7 1024.5 1024.3 0.0
28/03:30am 6.6 3.3 4.3 85 1.0 SSE 11 15 6 8 1024.3 1024.1 0.0
28/03:00am 6.8 3.5 4.5 85 1.0 SSE 11 15 6 8 1024.2 1024.0 0.0
28/02:30am 7.2 3.9 4.7 84 1.1 SSE 11 17 6 9 1024.2 1024.0 0.0
28/02:00am 7.6 3.9 4.7 82 1.3 SSE 13 17 7 9 1024.4 1024.2 0.0
28/01:30am 8.2 4.2 4.8 79 1.5 SSE 15 19 8 10 1024.4 1024.2 0.0
28/01:00am 8.3 4.7 4.9 79 1.5 SSE 13 19 7 10 1024.3 1024.1 0.0
28/12:30am 8.7 5.1 4.9 77 1.7 S 13 17 7 9 1024.4 1024.2 0.0
28/12:00am 9.0 5.4 5.2 77 1.7 S 13 19 7 10 1024.5 1024.3 0.0
 
Date/Time
EST
Temp
°C
App
Temp
°C
Dew
Point
°C
Rel
Hum
%
Delta-T
°C
Wind Press
QNH
hPa
Press
MSL
hPa
Rain since
9am
mm
Dir  Spd
km/h
Gust
km/h
Spd
kts
Gust
kts
27/11:30pm 9.3 6.1 5.1 75 1.9 S 11 15 6 8 1024.4 1024.2 0.0
27/11:00pm 9.4 6.7 5.5 76 1.8 S 9 13 5 7 1024.4 1024.2 0.0
27/10:30pm 10.0 7.3 5.4 73 2.1 S 9 15 5 8 1024.4 1024.2 0.0
27/10:00pm 10.5 7.0 5.3 70 2.4 S 13 17 7 9 1024.2 1024.0 0.0
27/09:30pm 10.9 6.9 5.0 67 2.7 S 15 19 8 10 1024.0 1023.8 0.0
27/09:00pm 11.2 7.7 5.4 67 2.7 SSW 13 19 7 10 1023.7 1023.5 0.0
27/08:30pm 11.6 8.1 5.6 66 2.8 SSW 13 17 7 9 1023.5 1023.3 0.0
27/08:00pm 12.4 8.8 5.1 61 3.4 SSW 13 17 7 9 1023.1 1022.9 0.0
27/07:30pm 12.6 9.1 5.3 61 3.4 SSW 13 17 7 9 1022.9 1022.7 0.0
27/07:00pm 13.0 9.5 5.6 61 3.5 SSW 13 17 7 9 1022.3 1022.0 0.0
27/06:30pm 13.6 10.1 5.3 57 3.9 SSW 13 17 7 9 1021.8 1021.5 0.0
27/06:00pm 14.2 10.6 5.1 54 4.3 SSW 13 19 7 10 1021.5 1021.2 0.0
27/05:30pm 15.1 10.7 4.7 50 4.9 SSW 17 22 9 12 1021.2 1020.9 0.0
27/05:00pm 15.7 11.0 5.2 49 5.0 SSW 19 24 10 13 1020.8 1020.5 0.0

Other Formats:

Comma delimited format used in spreadsheet applications
http://www.bom.gov.au/fwo/IDQ60801/IDQ60801.94346.axf

JavaScript Object Notation format (JSON) in row-major order
http://www.bom.gov.au/fwo/IDQ60801/IDQ60801.94346.json